Time;durP1;ratioP1;P1;durP2;ratioP2;P2;SDS_P1;SDS_P2;PMS_P1;PMS_P2;Temp;Humidity;BMP_temperature;BMP_pressure;BME280_temperature;BME280_humidity;BME280_pressure;Samples;Min_cycle;Max_cycle;Signal;HPM_P1;HPM_P2
2023/05/24 00:02:12;;;;;;;18.27;14.35;;;;;13.00;99018.00;;;;5052151;28;20409;-64
2023/05/24 00:04:40;;;;;;;15.88;13.60;;;;;13.00;99009.00;;;;5052242;28;20049;-64
2023/05/24 00:07:07;;;;;;;19.42;13.88;;;;;13.00;99010.00;;;;5052451;28;20048;-65
2023/05/24 00:09:34;;;;;;;15.10;12.27;;;;;13.00;99010.00;;;;5054048;28;20037;-64
2023/05/24 00:12:00;;;;;;;18.83;13.65;;;;;12.90;99006.00;;;;5053831;28;20485;-65
2023/05/24 00:14:27;;;;;;;18.65;13.90;;;;;12.80;99006.00;;;;5056252;28;20547;-64
2023/05/24 00:16:53;;;;;;;16.55;13.30;;;;;12.80;99005.00;;;;5055322;28;20076;-64
2023/05/24 00:19:21;;;;;;;18.10;12.80;;;;;12.80;99008.00;;;;5054174;28;20049;-64
2023/05/24 00:21:48;;;;;;;17.02;13.40;;;;;12.80;99002.00;;;;5055757;28;20041;-65
2023/05/24 00:24:16;;;;;;;15.50;11.95;;;;;12.80;98999.00;;;;5053817;28;20044;-65
2023/05/24 00:26:43;;;;;;;15.77;12.75;;;;;12.80;98992.00;;;;5052614;28;20083;-64
2023/05/24 00:29:10;;;;;;;16.50;13.07;;;;;12.80;98984.00;;;;5036126;28;20053;-65
2023/05/24 00:31:37;;;;;;;15.57;12.20;;;;;12.80;98989.00;;;;5051556;28;20109;-65
2023/05/24 00:34:03;;;;;;;17.45;12.88;;;;;12.80;98983.00;;;;5052946;28;20075;-65
2023/05/24 00:36:30;;;;;;;16.27;13.38;;;;;12.70;98987.00;;;;5051553;28;20053;-65
2023/05/24 00:38:57;;;;;;;22.20;14.02;;;;;12.60;98983.00;;;;5052679;28;20040;-65
2023/05/24 00:41:23;;;;;;;17.00;13.48;;;;;12.50;98980.00;;;;5052744;28;20119;-65
2023/05/24 00:43:50;;;;;;;15.88;12.55;;;;;12.50;98982.00;;;;5051315;28;20040;-65
2023/05/24 00:46:21;;;;;;;15.88;12.68;;;;;12.60;98978.00;;;;5052535;28;20468;-63
2023/05/24 00:48:48;;;;;;;17.67;13.25;;;;;12.60;98964.00;;;;5052671;28;20048;-63
2023/05/24 00:51:16;;;;;;;15.25;12.23;;;;;12.50;98968.00;;;;5052768;28;20069;-63
2023/05/24 00:53:45;;;;;;;14.35;12.65;;;;;12.50;98964.00;;;;5051484;28;20051;-64
2023/05/24 00:56:12;;;;;;;16.70;13.13;;;;;12.60;98958.00;;;;5051108;28;20136;-63
2023/05/24 00:58:40;;;;;;;14.50;12.95;;;;;12.60;98957.00;;;;5051132;28;20132;-64
2023/05/24 01:01:07;;;;;;;14.75;12.00;;;;;12.60;98961.00;;;;5051052;28;20053;-64
2023/05/24 01:03:34;;;;;;;16.50;12.82;;;;;12.60;98960.00;;;;5051073;28;20551;-65
2023/05/24 01:06:05;;;;;;;15.02;11.82;;;;;12.40;98964.00;;;;5052198;28;20116;-65
2023/05/24 01:08:37;;;;;;;15.00;10.80;;;;;12.50;98958.00;;;;5050992;28;20132;-65
2023/05/24 01:11:41;;;;;;;14.63;10.88;;;;;12.70;98956.00;;;;5050595;28;20098;-65
2023/05/24 01:14:15;;;;;;;13.68;11.00;;;;;12.60;98971.00;;;;5052189;28;20682;-65
2023/05/24 01:17:08;;;;;;;14.38;10.73;;;;;12.40;98970.00;;;;5050847;28;20048;-66
2023/05/24 01:20:08;;;;;;;15.45;10.57;;;;;12.30;98971.00;;;;5050815;28;20140;-64
2023/05/24 01:23:06;;;;;;;15.27;10.65;;;;;12.20;98980.00;;;;5052223;28;20075;-63
2023/05/24 01:25:45;;;;;;;13.30;9.77;;;;;12.10;98977.00;;;;5053943;28;20114;-65
2023/05/24 01:28:12;;;;;;;19.10;9.50;;;;;12.10;98979.00;;;;5051457;28;20044;-63
2023/05/24 01:30:40;;;;;;;11.57;7.78;;;;;12.10;98974.00;;;;5050656;28;20136;-63
2023/05/24 01:33:10;;;;;;;10.82;6.30;;;;;12.20;98982.00;;;;5034404;28;20045;-63
2023/05/24 01:35:41;;;;;;;10.90;6.68;;;;;12.20;98979.00;;;;5050715;28;20048;-64
2023/05/24 01:38:10;;;;;;;10.10;5.35;;;;;12.10;98981.00;;;;5050893;28;20045;-63
2023/05/24 01:40:46;;;;;;;12.00;5.88;;;;;12.10;98976.00;;;;5052327;28;20045;-63
2023/05/24 01:43:39;;;;;;;11.85;5.80;;;;;12.20;98979.00;;;;5035340;28;20041;-64
2023/05/24 01:46:18;;;;;;;12.38;6.13;;;;;12.30;98982.00;;;;5050670;28;20524;-64
2023/05/24 01:48:57;;;;;;;10.00;5.32;;;;;12.30;98986.00;;;;5050712;28;20414;-62
2023/05/24 01:51:32;;;;;;;10.00;5.30;;;;;12.30;98988.00;;;;5052258;28;20052;-64
2023/05/24 01:54:00;;;;;;;12.38;6.63;;;;;12.20;98989.00;;;;5050644;28;20135;-63
2023/05/24 01:56:29;;;;;;;12.07;5.78;;;;;12.10;98994.00;;;;5052465;28;20444;-62
2023/05/24 01:58:58;;;;;;;12.27;5.35;;;;;12.00;98996.00;;;;5034065;28;20147;-63
2023/05/24 02:01:25;;;;;;;17.48;5.70;;;;;11.90;98994.00;;;;5051690;28;20049;-62
2023/05/24 02:03:52;;;;;;;13.85;5.53;;;;;11.80;98991.00;;;;5050326;28;20049;-64
2023/05/24 02:06:19;;;;;;;11.77;5.32;;;;;11.70;98992.00;;;;5050144;28;20195;-64
2023/05/24 02:08:45;;;;;;;8.88;5.10;;;;;11.70;98993.00;;;;5050125;28;20076;-64
2023/05/24 02:11:12;;;;;;;12.63;5.32;;;;;11.60;98998.00;;;;5051261;28;20041;-64
2023/05/24 02:13:38;;;;;;;15.65;4.82;;;;;11.60;98992.00;;;;5050035;28;20084;-63
2023/05/24 02:16:05;;;;;;;11.65;4.32;;;;;11.60;98997.00;;;;5051429;28;20420;-63
2023/05/24 02:18:33;;;;;;;11.20;4.65;;;;;11.60;98995.00;;;;5050064;28;20098;-64
2023/05/24 02:21:01;;;;;;;10.18;4.25;;;;;11.60;98994.00;;;;5051205;28;20086;-64
2023/05/24 02:23:28;;;;;;;10.90;4.80;;;;;11.80;98990.00;;;;5050075;28;20577;-64
2023/05/24 02:25:55;;;;;;;14.07;4.63;;;;;11.80;99000.00;;;;5051387;28;20450;-63
2023/05/24 02:28:22;;;;;;;12.40;4.90;;;;;11.70;99002.00;;;;5051257;28;20122;-64
2023/05/24 02:30:48;;;;;;;14.80;4.82;;;;;11.60;98988.00;;;;5049765;28;20171;-64
2023/05/24 02:33:15;;;;;;;10.18;4.38;;;;;11.50;98994.00;;;;5050033;28;20045;-64
2023/05/24 02:35:42;;;;;;;10.07;5.10;;;;;11.50;98997.00;;;;5035082;28;20053;-64
2023/05/24 02:38:08;;;;;;;7.18;4.10;;;;;11.50;98985.00;;;;5055436;28;20064;-64
2023/05/24 02:40:35;;;;;;;11.60;4.70;;;;;11.40;98982.00;;;;5055768;28;20699;-64
2023/05/24 02:43:02;;;;;;;9.63;4.72;;;;;11.40;98980.00;;;;5056485;28;20393;-64
2023/05/24 02:45:29;;;;;;;14.40;4.43;;;;;11.40;98979.00;;;;5054682;28;20036;-64
2023/05/24 02:47:56;;;;;;;11.43;4.32;;;;;11.40;98969.00;;;;5039232;28;20077;-63
2023/05/24 02:50:22;;;;;;;12.60;4.57;;;;;11.40;98974.00;;;;5055282;28;20403;-63
2023/05/24 02:52:50;;;;;;;9.73;4.50;;;;;11.40;98976.00;;;;5057148;28;20036;-63
2023/05/24 02:55:17;;;;;;;12.65;4.75;;;;;11.40;98973.00;;;;5055850;28;20049;-63
2023/05/24 02:57:44;;;;;;;8.27;4.10;;;;;11.50;98970.00;;;;5055855;28;20044;-63
2023/05/24 03:00:11;;;;;;;9.55;4.13;;;;;11.50;98977.00;;;;5055920;28;20045;-63
2023/05/24 03:02:40;;;;;;;8.85;5.03;;;;;11.50;98973.00;;;;5053723;28;20062;-63
2023/05/24 03:05:07;;;;;;;6.40;4.18;;;;;11.50;98980.00;;;;5038372;28;20084;-63
2023/05/24 03:07:34;;;;;;;10.70;5.10;;;;;11.60;98978.00;;;;5055765;28;20128;-63
2023/05/24 03:10:01;;;;;;;11.32;4.47;;;;;11.70;98973.00;;;;5056285;28;20083;-63
2023/05/24 03:12:27;;;;;;;10.20;5.07;;;;;11.60;98977.00;;;;5056275;28;20144;-63
2023/05/24 03:14:54;;;;;;;13.75;5.22;;;;;11.60;98980.00;;;;5037008;28;20083;-65
2023/05/24 03:17:20;;;;;;;12.48;5.28;;;;;11.60;98985.00;;;;5053963;28;20045;-64
2023/05/24 03:19:48;;;;;;;13.00;5.45;;;;;11.60;98975.00;;;;5053987;28;20061;-65
2023/05/24 03:22:14;;;;;;;10.77;5.60;;;;;11.60;98987.00;;;;5053882;28;20049;-64
2023/05/24 03:24:41;;;;;;;12.07;5.07;;;;;11.60;98984.00;;;;5054836;28;20553;-64
2023/05/24 03:27:09;;;;;;;11.13;4.72;;;;;11.60;98976.00;;;;5054600;28;20048;-64
2023/05/24 03:29:36;;;;;;;8.93;4.22;;;;;11.50;98987.00;;;;5053373;28;20083;-63
2023/05/24 03:32:03;;;;;;;12.80;4.30;;;;;11.50;98974.00;;;;5053680;28;20045;-64
2023/05/24 03:34:30;;;;;;;8.70;3.92;;;;;11.50;98985.00;;;;5053766;28;20064;-63
2023/05/24 03:36:57;;;;;;;16.63;6.25;;;;;11.50;98987.00;;;;5054725;28;20095;-63
2023/05/24 03:39:23;;;;;;;8.02;3.53;;;;;11.50;98994.00;;;;5062292;28;20041;-64
2023/05/24 03:41:57;;;;;;;10.63;4.20;;;;;11.40;98986.00;;;;5072463;28;20049;-64
2023/05/24 03:44:24;;;;;;;12.80;3.88;;;;;11.40;98979.00;;;;5065074;28;20049;-64
2023/05/24 03:46:51;;;;;;;7.18;3.45;;;;;11.40;98990.00;;;;5052950;28;20052;-64
2023/05/24 03:49:18;;;;;;;10.30;4.00;;;;;11.40;98981.00;;;;5053455;28;20057;-64
2023/05/24 03:51:45;;;;;;;10.98;3.45;;;;;11.50;98991.00;;;;5036923;28;20224;-64
2023/05/24 03:54:11;;;;;;;5.95;3.50;;;;;11.40;98990.00;;;;5053491;28;20041;-64
2023/05/24 03:56:40;;;;;;;13.70;3.80;;;;;11.50;98986.00;;;;5052893;28;20052;-64
2023/05/24 03:59:07;;;;;;;13.13;3.80;;;;;11.50;98990.00;;;;5052706;28;20069;-63
2023/05/24 04:01:35;;;;;;;10.18;3.83;;;;;11.50;98986.00;;;;5052804;28;20080;-62
2023/05/24 04:04:02;;;;;;;10.30;3.83;;;;;11.50;98995.00;;;;5052613;28;20416;-62
2023/05/24 04:06:30;;;;;;;10.23;4.43;;;;;11.50;98993.00;;;;5052673;28;20410;-64
2023/05/24 04:09:00;;;;;;;11.40;4.07;;;;;11.50;98995.00;;;;5052304;28;20045;-63
2023/05/24 04:11:28;;;;;;;11.55;4.85;;;;;11.50;99002.00;;;;5035654;28;20052;-63
2023/05/24 04:13:56;;;;;;;11.27;4.45;;;;;11.60;98999.00;;;;5052222;28;20056;-63
2023/05/24 04:16:24;;;;;;;10.77;3.72;;;;;11.60;98999.00;;;;5052024;28;20135;-63
2023/05/24 04:18:55;;;;;;;13.00;4.22;;;;;11.50;99008.00;;;;5051906;28;20075;-64
2023/05/24 04:21:22;;;;;;;11.98;4.60;;;;;11.60;98997.00;;;;5051807;28;20494;-64
2023/05/24 04:23:49;;;;;;;15.15;4.50;;;;;11.60;98990.00;;;;5035154;28;20079;-62
2023/05/24 04:26:16;;;;;;;9.18;3.85;;;;;11.70;98991.00;;;;5051258;28;20075;-63
2023/05/24 04:28:44;;;;;;;11.73;3.88;;;;;11.70;98998.00;;;;5051494;28;20160;-62
2023/05/24 04:31:14;;;;;;;8.65;3.95;;;;;11.70;98994.00;;;;5035128;28;20059;-64
2023/05/24 04:33:41;;;;;;;9.70;3.67;;;;;11.70;98990.00;;;;5051598;28;20049;-63
2023/05/24 04:36:10;;;;;;;10.60;4.25;;;;;11.70;98984.00;;;;5035227;28;20417;-63
2023/05/24 04:38:37;;;;;;;12.40;4.70;;;;;11.80;98996.00;;;;5051435;28;20103;-64
2023/05/24 04:41:06;;;;;;;10.50;4.68;;;;;11.90;98986.00;;;;5035070;28;20473;-63
2023/05/24 04:43:33;;;;;;;10.57;3.95;;;;;12.00;98993.00;;;;5052843;28;20076;-63
2023/05/24 04:46:00;;;;;;;10.07;4.18;;;;;12.00;98990.00;;;;5052837;28;20107;-63
2023/05/24 04:48:27;;;;;;;9.05;3.83;;;;;12.00;98989.00;;;;5052611;28;20498;-63
2023/05/24 04:50:54;;;;;;;9.52;3.42;;;;;12.00;98993.00;;;;5052125;28;20041;-62
2023/05/24 04:53:22;;;;;;;12.73;3.88;;;;;12.10;98994.00;;;;5051437;28;20120;-65
2023/05/24 04:55:49;;;;;;;11.30;3.47;;;;;12.20;98993.00;;;;5052345;28;20413;-64
2023/05/24 04:58:16;;;;;;;7.18;2.95;;;;;12.20;99002.00;;;;5050931;28;20148;-64
2023/05/24 05:00:43;;;;;;;11.35;3.22;;;;;12.10;99004.00;;;;5052277;28;20044;-64
2023/05/24 05:03:10;;;;;;;9.43;3.65;;;;;12.10;99004.00;;;;5051197;28;20055;-63
2023/05/24 05:05:37;;;;;;;13.27;3.65;;;;;12.00;99007.00;;;;5052158;28;20052;-64
2023/05/24 05:08:03;;;;;;;11.13;3.30;;;;;11.90;98998.00;;;;5051114;28;20037;-64
2023/05/24 05:10:30;;;;;;;9.48;3.10;;;;;11.70;98999.00;;;;5052057;28;20051;-64
2023/05/24 05:12:57;;;;;;;7.00;3.42;;;;;11.60;98998.00;;;;5051045;28;20075;-64
2023/05/24 05:15:24;;;;;;;9.88;3.60;;;;;11.60;99007.00;;;;5050903;28;20045;-64
2023/05/24 05:17:51;;;;;;;10.07;3.55;;;;;11.50;98997.00;;;;5052075;28;20119;-64
2023/05/24 05:20:17;;;;;;;11.27;3.53;;;;;11.50;99004.00;;;;5050534;28;20144;-63
2023/05/24 05:22:47;;;;;;;6.50;3.58;;;;;11.40;99004.00;;;;5052073;28;20448;-64
2023/05/24 05:25:14;;;;;;;9.52;3.50;;;;;11.40;99007.00;;;;5050600;28;20045;-63
2023/05/24 05:27:41;;;;;;;9.32;3.45;;;;;11.30;99007.00;;;;5050587;28;20095;-64
2023/05/24 05:30:08;;;;;;;13.70;4.32;;;;;11.30;99009.00;;;;5050488;28;20067;-64
2023/05/24 05:32:35;;;;;;;11.00;3.42;;;;;11.40;99003.00;;;;5050974;28;20079;-64
2023/05/24 05:35:02;;;;;;;16.50;4.47;;;;;11.50;99015.00;;;;5051265;28;20506;-64
2023/05/24 05:37:29;;;;;;;10.73;3.83;;;;;11.50;99011.00;;;;5051404;28;20049;-63
2023/05/24 05:39:56;;;;;;;12.45;3.85;;;;;11.50;99015.00;;;;5050869;28;20540;-64
2023/05/24 05:42:23;;;;;;;12.73;3.33;;;;;11.50;99008.00;;;;5050873;28;20048;-64
2023/05/24 05:44:51;;;;;;;15.23;4.22;;;;;11.50;99019.00;;;;5052149;28;20033;-63
2023/05/24 05:47:18;;;;;;;11.48;3.58;;;;;11.50;99010.00;;;;5051054;28;20098;-62
2023/05/24 05:49:44;;;;;;;6.93;3.13;;;;;11.50;99021.00;;;;5050872;28;20053;-63
2023/05/24 05:52:11;;;;;;;15.07;3.67;;;;;11.40;99019.00;;;;5050373;28;20152;-64
2023/05/24 05:54:38;;;;;;;9.60;3.35;;;;;11.50;99013.00;;;;5051043;28;20052;-63
2023/05/24 05:57:06;;;;;;;13.35;3.80;;;;;11.50;99023.00;;;;5050883;28;20081;-62
2023/05/24 05:59:34;;;;;;;10.95;3.28;;;;;11.60;99025.00;;;;5051737;28;20103;-63
2023/05/24 06:02:05;;;;;;;9.52;3.60;;;;;11.70;99026.00;;;;5050318;28;20086;-64
2023/05/24 06:04:33;;;;;;;13.18;4.22;;;;;11.80;99026.00;;;;5051402;28;20128;-64
2023/05/24 06:06:59;;;;;;;10.02;3.30;;;;;11.80;99021.00;;;;5051511;28;20489;-63
2023/05/24 06:09:26;;;;;;;13.55;3.25;;;;;11.90;99024.00;;;;5050043;28;20045;-64
2023/05/24 06:11:53;;;;;;;11.32;3.60;;;;;12.10;99027.00;;;;5054239;28;20094;-64
2023/05/24 06:14:23;;;;;;;13.80;3.67;;;;;12.30;99022.00;;;;5055436;28;20036;-65
2023/05/24 06:16:51;;;;;;;12.00;3.75;;;;;12.40;99029.00;;;;5055648;28;20386;-65
2023/05/24 06:19:17;;;;;;;7.18;3.35;;;;;12.50;99037.00;;;;5055362;28;20045;-65
2023/05/24 06:21:48;;;;;;;12.95;3.15;;;;;12.50;99040.00;;;;5055240;28;20063;-64
2023/05/24 06:24:19;;;;;;;12.20;3.90;;;;;12.50;99037.00;;;;5055463;28;20155;-63
2023/05/24 06:26:47;;;;;;;13.52;3.90;;;;;12.60;99023.00;;;;5055621;28;20494;-63
2023/05/24 06:29:14;;;;;;;10.38;3.97;;;;;12.60;99027.00;;;;5054022;28;20399;-65
2023/05/24 06:31:43;;;;;;;11.88;3.70;;;;;12.60;99026.00;;;;5055126;28;20068;-63
2023/05/24 06:34:10;;;;;;;11.82;3.42;;;;;12.70;99025.00;;;;5053733;28;20135;-64
2023/05/24 06:36:41;;;;;;;8.98;3.08;;;;;12.70;99034.00;;;;5055187;28;20048;-63
2023/05/24 06:39:09;;;;;;;12.98;3.33;;;;;12.90;99036.00;;;;5055079;28;20045;-63
2023/05/24 06:41:36;;;;;;;9.90;3.20;;;;;13.00;99036.00;;;;5055094;28;20079;-63
2023/05/24 06:44:03;;;;;;;13.02;3.10;;;;;13.10;99037.00;;;;5054778;28;20045;-64
2023/05/24 06:46:30;;;;;;;8.63;3.20;;;;;13.10;99033.00;;;;5053841;28;20128;-63
2023/05/24 06:48:57;;;;;;;10.27;3.28;;;;;13.00;99033.00;;;;5053819;28;20053;-63
2023/05/24 06:51:24;;;;;;;10.50;3.45;;;;;13.00;99031.00;;;;5058550;28;20087;-63
2023/05/24 06:53:50;;;;;;;11.15;3.42;;;;;13.10;99039.00;;;;5056960;28;20132;-63
2023/05/24 06:56:17;;;;;;;12.10;3.13;;;;;13.10;99034.00;;;;5059028;28;20055;-63
2023/05/24 06:58:44;;;;;;;10.38;2.95;;;;;13.20;99042.00;;;;5058967;28;20052;-63
2023/05/24 07:01:11;;;;;;;9.20;3.05;;;;;13.30;99040.00;;;;5055258;28;20037;-62
2023/05/24 07:03:37;;;;;;;10.50;3.45;;;;;13.30;99041.00;;;;5053695;28;20040;-63
2023/05/24 07:06:04;;;;;;;10.13;3.55;;;;;13.50;99052.00;;;;5054744;28;20040;-63
2023/05/24 07:08:30;;;;;;;9.15;2.90;;;;;13.50;99058.00;;;;5055900;28;20123;-62
2023/05/24 07:10:57;;;;;;;7.28;2.70;;;;;13.60;99061.00;;;;5054555;28;20609;-63
2023/05/24 07:13:23;;;;;;;12.68;3.00;;;;;13.70;99063.00;;;;5053519;28;20041;-63
2023/05/24 07:15:50;;;;;;;11.23;2.58;;;;;13.80;99061.00;;;;5054701;28;20056;-63
2023/05/24 07:18:16;;;;;;;9.45;3.08;;;;;14.00;99058.00;;;;5053706;28;20048;-63
2023/05/24 07:20:43;;;;;;;8.70;3.28;;;;;14.10;99063.00;;;;5054198;28;20051;-63
2023/05/24 07:23:10;;;;;;;7.28;3.03;;;;;14.20;99070.00;;;;5053335;28;20071;-62
2023/05/24 07:25:37;;;;;;;12.30;3.22;;;;;14.20;99068.00;;;;5053224;28;20053;-63
2023/05/24 07:28:04;;;;;;;9.98;2.92;;;;;14.10;99073.00;;;;5053144;28;20509;-62
2023/05/24 07:30:31;;;;;;;9.63;2.67;;;;;14.10;99072.00;;;;5054332;28;20037;-62
2023/05/24 07:32:58;;;;;;;9.00;2.88;;;;;14.20;99079.00;;;;5053134;28;20056;-63
2023/05/24 07:35:28;;;;;;;10.55;2.67;;;;;14.20;99077.00;;;;5054413;28;20140;-63
2023/05/24 07:37:55;;;;;;;9.70;3.10;;;;;14.20;99074.00;;;;5053232;28;20041;-64
2023/05/24 07:40:21;;;;;;;9.35;2.88;;;;;14.20;99084.00;;;;5062204;28;20068;-64
2023/05/24 07:42:49;;;;;;;9.18;3.30;;;;;14.20;99073.00;;;;5067499;28;20041;-64
2023/05/24 07:45:15;;;;;;;11.23;3.60;;;;;14.20;99072.00;;;;5061245;28;20041;-64
2023/05/24 07:47:42;;;;;;;15.10;3.30;;;;;14.30;99076.00;;;;5055634;28;20091;-64
2023/05/24 07:50:09;;;;;;;8.20;3.15;;;;;14.50;99072.00;;;;5053705;28;20055;-64
2023/05/24 07:52:37;;;;;;;7.18;3.05;;;;;14.70;99085.00;;;;5055117;28;20071;-64
2023/05/24 07:55:05;;;;;;;10.75;3.20;;;;;14.50;99076.00;;;;5054917;28;20036;-64
2023/05/24 07:57:32;;;;;;;14.30;3.00;;;;;14.40;99068.00;;;;5054833;28;20510;-64
2023/05/24 08:00:05;;;;;;;9.75;2.97;;;;;14.50;99071.00;;;;5053759;28;20111;-64
2023/05/24 08:02:37;;;;;;;10.02;3.08;;;;;14.70;99082.00;;;;5053800;28;20052;-64
2023/05/24 08:05:04;;;;;;;13.13;3.53;;;;;14.80;99081.00;;;;5054553;28;20037;-64
2023/05/24 08:07:31;;;;;;;9.35;3.00;;;;;14.70;99082.00;;;;5052920;28;20090;-64
2023/05/24 08:09:57;;;;;;;10.93;2.92;;;;;14.60;99059.00;;;;5052551;28;20061;-63
2023/05/24 08:12:24;;;;;;;9.00;2.90;;;;;14.60;99066.00;;;;5053418;28;20083;-64
2023/05/24 08:14:51;;;;;;;5.10;2.53;;;;;14.60;99074.00;;;;5053135;28;20060;-64
2023/05/24 08:17:18;;;;;;;11.32;4.22;;;;;14.60;99069.00;;;;5054313;28;20094;-63
2023/05/24 08:19:45;;;;;;;7.60;2.88;;;;;14.60;99072.00;;;;5054107;28;20441;-64
2023/05/24 08:22:11;;;;;;;14.05;3.00;;;;;14.60;99072.00;;;;5036439;28;20056;-63
2023/05/24 08:24:38;;;;;;;11.45;3.00;;;;;14.60;99059.00;;;;5052416;28;20079;-63
2023/05/24 08:27:05;;;;;;;11.90;3.10;;;;;14.60;99068.00;;;;5052697;28;20083;-63
2023/05/24 08:29:32;;;;;;;8.98;2.85;;;;;14.60;99064.00;;;;5053754;28;20372;-63
2023/05/24 08:31:59;;;;;;;8.85;3.00;;;;;14.70;99071.00;;;;5052434;28;20045;-63
2023/05/24 08:34:27;;;;;;;9.05;2.72;;;;;14.80;99066.00;;;;5052001;28;20037;-64
2023/05/24 08:36:53;;;;;;;10.15;2.58;;;;;15.00;99072.00;;;;5053695;28;20407;-63
2023/05/24 08:39:20;;;;;;;9.48;2.63;;;;;15.20;99066.00;;;;5053556;28;20063;-64
2023/05/24 08:41:47;;;;;;;10.57;3.03;;;;;15.20;99057.00;;;;5052442;28;20068;-64
2023/05/24 08:44:58;;;;;;;8.90;2.85;;;;;15.00;99068.00;;;;5053540;28;20048;-63
2023/05/24 08:47:25;;;;;;;7.28;2.55;;;;;14.90;99070.00;;;;5053125;28;20075;-63
2023/05/24 08:49:53;;;;;;;7.57;2.72;;;;;15.00;99069.00;;;;5053271;28;20044;-63
2023/05/24 08:52:21;;;;;;;13.55;3.28;;;;;15.10;99083.00;;;;5053725;28;20041;-64
2023/05/24 08:54:48;;;;;;;7.88;2.60;;;;;15.10;99076.00;;;;5052319;28;20399;-63
2023/05/24 08:57:16;;;;;;;7.20;2.50;;;;;15.30;99078.00;;;;5052154;28;20490;-64
2023/05/24 08:59:43;;;;;;;8.18;2.85;;;;;15.40;99088.00;;;;5053508;28;20617;-64
2023/05/24 09:02:13;;;;;;;8.23;2.60;;;;;15.50;99094.00;;;;5054131;28;20045;-65
2023/05/24 09:04:43;;;;;;;5.88;2.30;;;;;15.60;99102.00;;;;5053829;28;20115;-63
2023/05/24 09:07:12;;;;;;;6.93;2.70;;;;;15.50;99097.00;;;;5053530;28;20494;-63
2023/05/24 09:09:56;;;;;;;7.35;2.67;;;;;15.50;99093.00;;;;5053379;28;20052;-63
2023/05/24 09:12:25;;;;;;;8.35;2.60;;;;;15.70;99088.00;;;;5051624;28;20387;-63
2023/05/24 09:15:04;;;;;;;10.00;2.55;;;;;15.80;99100.00;;;;5053263;28;20071;-63
2023/05/24 09:17:33;;;;;;;7.80;2.40;;;;;15.80;99096.00;;;;5052674;28;20049;-63
2023/05/24 09:20:00;;;;;;;5.70;2.35;;;;;15.80;99094.00;;;;5050521;28;20536;-64
2023/05/24 09:22:29;;;;;;;4.60;1.75;;;;;15.70;99087.00;;;;5052356;28;20511;-64
2023/05/24 09:25:00;;;;;;;9.43;2.47;;;;;15.70;99081.00;;;;5034548;28;20520;-64
2023/05/24 09:27:30;;;;;;;10.82;2.90;;;;;15.80;99085.00;;;;5052378;28;20497;-64
2023/05/24 09:29:57;;;;;;;7.47;2.13;;;;;15.80;99081.00;;;;5050587;28;20409;-64
2023/05/24 09:32:24;;;;;;;5.60;2.35;;;;;15.90;99070.00;;;;5050861;28;20517;-65
2023/05/24 09:34:54;;;;;;;17.40;3.92;;;;;16.20;99078.00;;;;5050606;28;20049;-64
2023/05/24 09:37:26;;;;;;;6.05;2.42;;;;;16.40;99076.00;;;;5051464;28;20398;-64
2023/05/24 09:39:58;;;;;;;7.45;2.17;;;;;16.50;99073.00;;;;5052513;28;20064;-63
2023/05/24 09:42:29;;;;;;;9.07;2.55;;;;;16.40;99073.00;;;;5052252;28;20063;-63
2023/05/24 09:45:09;;;;;;;7.13;2.30;;;;;16.60;99065.00;;;;5050401;28;20049;-63
2023/05/24 09:47:40;;;;;;;6.70;2.33;;;;;16.60;99058.00;;;;5051025;28;20041;-63
2023/05/24 09:50:18;;;;;;;7.35;2.00;;;;;16.90;99058.00;;;;5052025;28;20045;-63
2023/05/24 09:52:45;;;;;;;8.93;2.55;;;;;17.00;99064.00;;;;5052094;28;20069;-64
2023/05/24 09:55:16;;;;;;;6.65;2.28;;;;;17.20;99057.00;;;;5035480;28;20075;-64
2023/05/24 09:57:44;;;;;;;5.38;2.60;;;;;17.30;99049.00;;;;5054322;28;20044;-65
2023/05/24 10:00:20;;;;;;;5.53;2.25;;;;;17.40;99047.00;;;;5055780;28;20037;-63
2023/05/24 10:03:00;;;;;;;5.20;1.77;;;;;17.70;99034.00;;;;5065286;28;20041;-64
2023/05/24 10:05:28;;;;;;;7.47;2.30;;;;;17.90;99042.00;;;;5065268;28;20484;-64
2023/05/24 10:07:56;;;;;;;4.10;1.85;;;;;18.20;99037.00;;;;5068674;28;20041;-64
2023/05/24 10:10:29;;;;;;;6.28;2.92;;;;;18.40;99038.00;;;;5063097;28;20075;-64
2023/05/24 10:13:00;;;;;;;5.80;2.10;;;;;18.50;99035.00;;;;5067528;28;20048;-65
2023/05/24 10:15:28;;;;;;;4.05;2.10;;;;;18.70;99037.00;;;;5065839;28;20049;-64
2023/05/24 10:17:55;;;;;;;4.13;2.03;;;;;18.90;99041.00;;;;5070037;28;20048;-64
2023/05/24 10:20:23;;;;;;;8.15;2.60;;;;;18.80;99044.00;;;;5069333;28;20041;-63
2023/05/24 10:23:00;;;;;;;6.30;2.10;;;;;18.70;99051.00;;;;5060501;28;20053;-63
2023/05/24 10:25:28;;;;;;;6.70;2.03;;;;;18.50;99055.00;;;;5057672;28;20119;-64
2023/05/24 10:27:58;;;;;;;5.80;1.80;;;;;18.60;99043.00;;;;5052898;28;20433;-64
2023/05/24 10:30:31;;;;;;;5.57;2.00;;;;;18.50;99051.00;;;;5061929;28;20466;-64
2023/05/24 10:32:58;;;;;;;;;;;;;18.20;99043.00;;;;5058801;28;20049;-63
2023/05/24 10:35:27;;;;;;;4.70;2.15;;;;;18.00;99050.00;;;;5057537;28;19921;-64
2023/05/24 10:37:54;;;;;;;4.13;2.38;;;;;17.90;99058.00;;;;5053667;28;20048;-64
2023/05/24 10:40:25;;;;;;;5.95;2.10;;;;;17.90;99055.00;;;;5051009;28;20140;-64
2023/05/24 10:42:55;;;;;;;11.85;2.50;;;;;18.00;99058.00;;;;5052379;28;20045;-64
2023/05/24 10:45:21;;;;;;;6.82;1.90;;;;;17.90;99058.00;;;;5051700;28;20124;-64
2023/05/24 10:47:48;;;;;;;5.57;1.75;;;;;17.80;99038.00;;;;5052138;28;20751;-64
2023/05/24 10:50:17;;;;;;;7.68;2.22;;;;;17.80;99047.00;;;;5052532;28;20568;-64
2023/05/24 10:52:43;;;;;;;6.10;2.30;;;;;17.60;99050.00;;;;5052194;28;20570;-64
2023/05/24 10:55:10;;;;;;;4.70;2.15;;;;;17.50;99044.00;;;;5050745;28;20037;-64
2023/05/24 10:57:38;;;;;;;6.68;2.55;;;;;17.70;99039.00;;;;5054593;28;20064;-65
2023/05/24 11:00:28;;;;;;;4.97;2.22;;;;;17.60;99042.00;;;;5056517;28;20049;-64
2023/05/24 11:03:09;;;;;;;7.55;2.20;;;;;17.70;99039.00;;;;5054303;28;20407;-64
2023/05/24 11:05:45;;;;;;;7.50;2.85;;;;;17.90;99036.00;;;;5059497;28;20557;-65
2023/05/24 11:08:12;;;;;;;6.63;2.35;;;;;18.00;99033.00;;;;5058310;28;20037;-64
2023/05/24 11:10:40;;;;;;;7.80;2.33;;;;;17.90;99037.00;;;;5056516;28;20049;-64
2023/05/24 11:13:09;;;;;;;5.18;2.78;;;;;17.90;99042.00;;;;5040591;28;20053;-63
2023/05/24 11:15:37;;;;;;;6.43;2.00;;;;;18.10;99035.00;;;;5058000;28;20041;-64
2023/05/24 11:18:12;;;;;;;7.35;2.10;;;;;18.30;99049.00;;;;5057887;28;20060;-64
2023/05/24 11:20:46;;;;;;;7.45;2.47;;;;;18.30;99032.00;;;;5056940;28;20055;-65
2023/05/24 11:23:14;;;;;;;7.45;2.40;;;;;18.30;99058.00;;;;5056441;28;20045;-64
2023/05/24 11:25:42;;;;;;;5.03;1.95;;;;;18.00;99040.00;;;;5055152;28;20094;-64
2023/05/24 11:28:12;;;;;;;4.93;2.05;;;;;17.90;99037.00;;;;5055228;28;20477;-64
2023/05/24 11:30:44;;;;;;;7.32;2.03;;;;;17.90;99027.00;;;;5053621;28;20049;-65
2023/05/24 11:33:18;;;;;;;6.07;2.30;;;;;17.90;99027.00;;;;5037705;28;20466;-65
2023/05/24 11:35:46;;;;;;;6.13;2.00;;;;;18.10;99028.00;;;;5053794;28;20390;-64
2023/05/24 11:38:15;;;;;;;6.40;2.72;;;;;18.30;99034.00;;;;5053497;28;20064;-66
2023/05/24 11:40:43;;;;;;;6.43;2.40;;;;;18.40;99016.00;;;;5054323;28;20378;-65
2023/05/24 11:43:13;;;;;;;6.95;2.30;;;;;18.60;99032.00;;;;5061938;28;20211;-64
2023/05/24 11:45:44;;;;;;;5.30;1.98;;;;;18.40;99033.00;;;;5064523;28;20041;-65
2023/05/24 11:48:11;;;;;;;5.30;2.35;;;;;18.20;99026.00;;;;5060169;28;20471;-67
2023/05/24 11:50:47;;;;;;;5.63;2.10;;;;;18.00;99034.00;;;;5054992;28;20467;-66
2023/05/24 11:53:18;;;;;;;4.53;2.10;;;;;18.00;99030.00;;;;5053771;28;20053;-67
2023/05/24 11:55:45;;;;;;;6.13;2.10;;;;;18.00;99031.00;;;;5053491;28;20068;-67
2023/05/24 11:58:23;;;;;;;5.07;1.92;;;;;18.10;99023.00;;;;5055476;28;20080;-65
2023/05/24 12:00:51;;;;;;;8.90;2.47;;;;;18.30;99030.00;;;;5054909;28;20045;-65
2023/05/24 12:03:17;;;;;;;7.63;2.13;;;;;18.10;99028.00;;;;5055301;28;20136;-64
2023/05/24 12:05:44;;;;;;;6.43;1.77;;;;;18.00;99017.00;;;;5053483;28;20379;-65
2023/05/24 12:08:14;;;;;;;3.05;1.77;;;;;18.00;99015.00;;;;5053989;28;20048;-65
2023/05/24 12:10:42;;;;;;;4.38;2.03;;;;;18.20;99016.00;;;;5054331;28;20095;-65
2023/05/24 12:13:25;;;;;;;4.15;1.90;;;;;18.30;99013.00;;;;5054618;28;20132;-64
2023/05/24 12:15:55;;;;;;;5.68;1.90;;;;;18.30;99025.00;;;;5054587;28;20040;-65
2023/05/24 12:18:24;;;;;;;7.18;2.03;;;;;18.30;99012.00;;;;5054822;28;20102;-65
2023/05/24 12:20:51;;;;;;;7.13;2.65;;;;;18.30;99015.00;;;;5054085;28;20502;-67